sensor_id;sensor_type;location;lat;lon;timestamp;P1;durP1;ratioP1;P2;durP2;ratioP2
6689;SDS011;3382;51.576;8.076;2022-12-05T00:00:32;22.07;;;14.30;;
6689;SDS011;3382;51.576;8.076;2022-12-05T00:02:58;23.90;;;15.37;;
6689;SDS011;3382;51.576;8.076;2022-12-05T00:05:28;24.40;;;15.43;;
6689;SDS011;3382;51.576;8.076;2022-12-05T00:07:54;23.30;;;14.47;;
6689;SDS011;3382;51.576;8.076;2022-12-05T00:10:19;23.80;;;15.27;;
6689;SDS011;3382;51.576;8.076;2022-12-05T00:12:45;23.73;;;15.80;;
6689;SDS011;3382;51.576;8.076;2022-12-05T00:15:10;23.33;;;15.60;;
6689;SDS011;3382;51.576;8.076;2022-12-05T00:17:37;24.37;;;14.73;;
6689;SDS011;3382;51.576;8.076;2022-12-05T00:20:04;29.87;;;15.63;;
6689;SDS011;3382;51.576;8.076;2022-12-05T00:22:30;23.47;;;14.37;;
6689;SDS011;3382;51.576;8.076;2022-12-05T00:24:55;24.07;;;15.80;;
6689;SDS011;3382;51.576;8.076;2022-12-05T00:27:21;23.10;;;15.23;;
6689;SDS011;3382;51.576;8.076;2022-12-05T00:29:46;25.23;;;15.70;;
6689;SDS011;3382;51.576;8.076;2022-12-05T00:32:12;24.90;;;15.63;;
6689;SDS011;3382;51.576;8.076;2022-12-05T00:34:38;23.87;;;15.13;;
6689;SDS011;3382;51.576;8.076;2022-12-05T00:37:03;24.90;;;15.10;;
6689;SDS011;3382;51.576;8.076;2022-12-05T00:39:29;25.63;;;15.53;;
6689;SDS011;3382;51.576;8.076;2022-12-05T00:41:54;22.20;;;14.57;;
6689;SDS011;3382;51.576;8.076;2022-12-05T00:44:20;35.13;;;23.23;;
6689;SDS011;3382;51.576;8.076;2022-12-05T00:46:45;24.00;;;15.43;;
6689;SDS011;3382;51.576;8.076;2022-12-05T00:49:11;22.70;;;14.93;;
6689;SDS011;3382;51.576;8.076;2022-12-05T00:51:38;25.43;;;15.73;;
6689;SDS011;3382;51.576;8.076;2022-12-05T00:54:06;20.23;;;14.93;;
6689;SDS011;3382;51.576;8.076;2022-12-05T00:56:37;24.70;;;16.03;;
6689;SDS011;3382;51.576;8.076;2022-12-05T00:59:04;26.50;;;15.77;;
6689;SDS011;3382;51.576;8.076;2022-12-05T01:01:31;22.70;;;14.37;;
6689;SDS011;3382;51.576;8.076;2022-12-05T01:03:59;24.67;;;14.77;;
6689;SDS011;3382;51.576;8.076;2022-12-05T01:06:27;22.73;;;14.67;;
6689;SDS011;3382;51.576;8.076;2022-12-05T01:08:53;21.80;;;13.97;;
6689;SDS011;3382;51.576;8.076;2022-12-05T01:11:20;25.90;;;15.87;;
6689;SDS011;3382;51.576;8.076;2022-12-05T01:13:47;23.33;;;15.57;;
6689;SDS011;3382;51.576;8.076;2022-12-05T01:16:13;23.37;;;14.70;;
6689;SDS011;3382;51.576;8.076;2022-12-05T01:18:44;24.63;;;15.30;;
6689;SDS011;3382;51.576;8.076;2022-12-05T01:21:10;24.07;;;14.90;;
6689;SDS011;3382;51.576;8.076;2022-12-05T01:23:36;23.07;;;14.57;;
6689;SDS011;3382;51.576;8.076;2022-12-05T01:26:04;27.07;;;16.43;;
6689;SDS011;3382;51.576;8.076;2022-12-05T01:28:32;22.83;;;14.37;;
6689;SDS011;3382;51.576;8.076;2022-12-05T01:30:58;26.10;;;15.53;;
6689;SDS011;3382;51.576;8.076;2022-12-05T01:33:30;24.87;;;14.53;;
6689;SDS011;3382;51.576;8.076;2022-12-05T01:35:56;25.10;;;16.23;;
6689;SDS011;3382;51.576;8.076;2022-12-05T01:38:21;23.57;;;15.73;;
6689;SDS011;3382;51.576;8.076;2022-12-05T01:40:47;23.73;;;15.63;;
6689;SDS011;3382;51.576;8.076;2022-12-05T01:43:16;23.30;;;15.33;;
6689;SDS011;3382;51.576;8.076;2022-12-05T01:45:43;26.70;;;15.47;;
6689;SDS011;3382;51.576;8.076;2022-12-05T01:48:13;25.10;;;15.23;;
6689;SDS011;3382;51.576;8.076;2022-12-05T01:50:43;25.13;;;15.30;;
6689;SDS011;3382;51.576;8.076;2022-12-05T01:53:09;23.40;;;15.73;;
6689;SDS011;3382;51.576;8.076;2022-12-05T01:55:35;25.10;;;15.17;;
6689;SDS011;3382;51.576;8.076;2022-12-05T01:58:02;27.83;;;15.83;;
6689;SDS011;3382;51.576;8.076;2022-12-05T02:00:30;25.27;;;16.00;;
6689;SDS011;3382;51.576;8.076;2022-12-05T02:02:58;27.50;;;15.63;;
6689;SDS011;3382;51.576;8.076;2022-12-05T02:05:28;26.27;;;15.53;;
6689;SDS011;3382;51.576;8.076;2022-12-05T02:07:56;23.87;;;14.87;;
6689;SDS011;3382;51.576;8.076;2022-12-05T02:10:23;23.03;;;14.40;;
6689;SDS011;3382;51.576;8.076;2022-12-05T02:12:49;24.23;;;15.03;;
6689;SDS011;3382;51.576;8.076;2022-12-05T02:23:46;25.37;;;15.23;;
6689;SDS011;3382;51.576;8.076;2022-12-05T02:39:16;28.50;;;15.70;;
6689;SDS011;3382;51.576;8.076;2022-12-05T02:41:50;25.77;;;15.17;;
6689;SDS011;3382;51.576;8.076;2022-12-05T02:44:24;24.73;;;15.60;;
6689;SDS011;3382;51.576;8.076;2022-12-05T02:47:01;24.57;;;15.80;;
6689;SDS011;3382;51.576;8.076;2022-12-05T02:49:30;29.40;;;16.43;;
6689;SDS011;3382;51.576;8.076;2022-12-05T02:51:59;28.07;;;15.87;;
6689;SDS011;3382;51.576;8.076;2022-12-05T02:54:29;26.67;;;15.40;;
6689;SDS011;3382;51.576;8.076;2022-12-05T02:57:00;24.67;;;15.53;;
6689;SDS011;3382;51.576;8.076;2022-12-05T02:59:27;26.53;;;16.13;;
6689;SDS011;3382;51.576;8.076;2022-12-05T03:01:53;25.27;;;16.07;;
6689;SDS011;3382;51.576;8.076;2022-12-05T03:04:20;27.33;;;16.17;;
6689;SDS011;3382;51.576;8.076;2022-12-05T03:06:58;27.83;;;16.53;;
6689;SDS011;3382;51.576;8.076;2022-12-05T03:09:36;25.13;;;15.57;;
6689;SDS011;3382;51.576;8.076;2022-12-05T03:12:11;26.70;;;16.20;;
6689;SDS011;3382;51.576;8.076;2022-12-05T03:14:44;30.97;;;16.30;;
6689;SDS011;3382;51.576;8.076;2022-12-05T03:17:33;28.60;;;16.17;;
6689;SDS011;3382;51.576;8.076;2022-12-05T03:20:04;26.90;;;16.80;;
6689;SDS011;3382;51.576;8.076;2022-12-05T03:22:42;27.83;;;16.17;;
6689;SDS011;3382;51.576;8.076;2022-12-05T03:25:51;27.87;;;16.07;;
6689;SDS011;3382;51.576;8.076;2022-12-05T03:28:30;25.63;;;15.70;;
6689;SDS011;3382;51.576;8.076;2022-12-05T03:31:13;28.53;;;16.13;;
6689;SDS011;3382;51.576;8.076;2022-12-05T03:33:44;27.53;;;15.83;;
6689;SDS011;3382;51.576;8.076;2022-12-05T03:36:16;26.50;;;15.47;;
6689;SDS011;3382;51.576;8.076;2022-12-05T03:38:48;27.93;;;16.43;;
6689;SDS011;3382;51.576;8.076;2022-12-05T03:43:56;25.37;;;15.10;;
6689;SDS011;3382;51.576;8.076;2022-12-05T03:46:29;24.27;;;15.17;;
6689;SDS011;3382;51.576;8.076;2022-12-05T03:49:03;27.67;;;15.43;;
6689;SDS011;3382;51.576;8.076;2022-12-05T03:51:40;27.33;;;15.80;;
6689;SDS011;3382;51.576;8.076;2022-12-05T03:54:16;26.23;;;15.83;;
6689;SDS011;3382;51.576;8.076;2022-12-05T03:56:49;26.67;;;15.37;;
6689;SDS011;3382;51.576;8.076;2022-12-05T04:00:30;26.07;;;15.30;;
6689;SDS011;3382;51.576;8.076;2022-12-05T04:05:20;24.47;;;15.63;;
6689;SDS011;3382;51.576;8.076;2022-12-05T04:08:02;27.17;;;14.53;;
6689;SDS011;3382;51.576;8.076;2022-12-05T04:10:31;25.43;;;15.50;;
6689;SDS011;3382;51.576;8.076;2022-12-05T04:13:12;29.60;;;15.87;;
6689;SDS011;3382;51.576;8.076;2022-12-05T04:15:55;26.97;;;16.03;;
6689;SDS011;3382;51.576;8.076;2022-12-05T04:18:48;28.63;;;15.93;;
6689;SDS011;3382;51.576;8.076;2022-12-05T04:21:26;28.80;;;15.50;;
6689;SDS011;3382;51.576;8.076;2022-12-05T04:24:03;32.60;;;16.33;;
6689;SDS011;3382;51.576;8.076;2022-12-05T04:27:01;28.40;;;15.67;;
6689;SDS011;3382;51.576;8.076;2022-12-05T04:29:33;24.23;;;15.57;;
6689;SDS011;3382;51.576;8.076;2022-12-05T04:32:07;27.73;;;15.53;;
6689;SDS011;3382;51.576;8.076;2022-12-05T04:34:35;34.17;;;14.50;;
6689;SDS011;3382;51.576;8.076;2022-12-05T04:37:09;24.67;;;14.53;;
6689;SDS011;3382;51.576;8.076;2022-12-05T04:39:41;20.10;;;13.07;;
6689;SDS011;3382;51.576;8.076;2022-12-05T04:42:20;21.93;;;15.03;;
6689;SDS011;3382;51.576;8.076;2022-12-05T04:44:51;23.37;;;14.63;;
6689;SDS011;3382;51.576;8.076;2022-12-05T04:47:20;26.20;;;15.70;;
6689;SDS011;3382;51.576;8.076;2022-12-05T04:49:48;23.30;;;14.87;;
6689;SDS011;3382;51.576;8.076;2022-12-05T04:52:15;22.40;;;14.03;;
6689;SDS011;3382;51.576;8.076;2022-12-05T04:54:45;17.70;;;12.70;;
6689;SDS011;3382;51.576;8.076;2022-12-05T04:57:26;19.23;;;13.23;;
6689;SDS011;3382;51.576;8.076;2022-12-05T05:00:29;20.53;;;12.80;;
6689;SDS011;3382;51.576;8.076;2022-12-05T05:03:10;21.40;;;13.67;;
6689;SDS011;3382;51.576;8.076;2022-12-05T05:05:48;20.03;;;12.67;;
6689;SDS011;3382;51.576;8.076;2022-12-05T05:08:20;22.30;;;13.40;;
6689;SDS011;3382;51.576;8.076;2022-12-05T05:10:51;19.37;;;12.70;;
6689;SDS011;3382;51.576;8.076;2022-12-05T05:13:34;17.87;;;13.10;;
6689;SDS011;3382;51.576;8.076;2022-12-05T05:16:00;18.97;;;12.83;;
6689;SDS011;3382;51.576;8.076;2022-12-05T05:18:25;20.87;;;12.63;;
6689;SDS011;3382;51.576;8.076;2022-12-05T05:20:51;21.10;;;13.03;;
6689;SDS011;3382;51.576;8.076;2022-12-05T05:23:16;21.43;;;12.77;;
6689;SDS011;3382;51.576;8.076;2022-12-05T05:25:42;18.87;;;13.33;;
6689;SDS011;3382;51.576;8.076;2022-12-05T05:28:08;22.30;;;13.63;;
6689;SDS011;3382;51.576;8.076;2022-12-05T05:30:33;21.87;;;12.77;;
6689;SDS011;3382;51.576;8.076;2022-12-05T05:32:59;19.37;;;13.37;;
6689;SDS011;3382;51.576;8.076;2022-12-05T05:35:24;19.77;;;13.30;;
6689;SDS011;3382;51.576;8.076;2022-12-05T05:37:50;19.90;;;13.23;;
6689;SDS011;3382;51.576;8.076;2022-12-05T05:40:16;19.70;;;12.73;;
6689;SDS011;3382;51.576;8.076;2022-12-05T05:42:46;19.90;;;13.03;;
6689;SDS011;3382;51.576;8.076;2022-12-05T05:45:13;22.03;;;13.13;;
6689;SDS011;3382;51.576;8.076;2022-12-05T05:47:40;19.53;;;13.07;;
6689;SDS011;3382;51.576;8.076;2022-12-05T05:50:06;20.77;;;13.37;;
6689;SDS011;3382;51.576;8.076;2022-12-05T05:52:33;21.53;;;12.70;;
6689;SDS011;3382;51.576;8.076;2022-12-05T05:55:01;21.13;;;13.33;;
6689;SDS011;3382;51.576;8.076;2022-12-05T05:57:27;20.50;;;13.07;;
6689;SDS011;3382;51.576;8.076;2022-12-05T05:59:54;22.63;;;13.13;;
6689;SDS011;3382;51.576;8.076;2022-12-05T06:02:19;19.67;;;12.73;;
6689;SDS011;3382;51.576;8.076;2022-12-05T06:04:45;23.13;;;13.43;;
6689;SDS011;3382;51.576;8.076;2022-12-05T06:07:11;20.80;;;13.23;;
6689;SDS011;3382;51.576;8.076;2022-12-05T06:09:37;18.67;;;12.90;;
6689;SDS011;3382;51.576;8.076;2022-12-05T06:12:02;19.30;;;12.07;;
6689;SDS011;3382;51.576;8.076;2022-12-05T06:14:28;24.00;;;13.17;;
6689;SDS011;3382;51.576;8.076;2022-12-05T06:16:54;21.40;;;12.60;;
6689;SDS011;3382;51.576;8.076;2022-12-05T06:19:19;21.60;;;12.67;;
6689;SDS011;3382;51.576;8.076;2022-12-05T06:21:47;19.63;;;12.77;;
6689;SDS011;3382;51.576;8.076;2022-12-05T06:24:13;20.47;;;12.67;;
6689;SDS011;3382;51.576;8.076;2022-12-05T06:26:39;18.50;;;12.00;;
6689;SDS011;3382;51.576;8.076;2022-12-05T06:29:04;21.60;;;12.07;;
6689;SDS011;3382;51.576;8.076;2022-12-05T06:31:30;18.73;;;12.03;;
6689;SDS011;3382;51.576;8.076;2022-12-05T06:34:00;16.63;;;11.53;;
6689;SDS011;3382;51.576;8.076;2022-12-05T06:36:28;17.93;;;11.73;;
6689;SDS011;3382;51.576;8.076;2022-12-05T06:38:56;20.10;;;11.60;;
6689;SDS011;3382;51.576;8.076;2022-12-05T06:41:23;17.90;;;12.57;;
6689;SDS011;3382;51.576;8.076;2022-12-05T06:43:52;19.63;;;11.20;;
6689;SDS011;3382;51.576;8.076;2022-12-05T06:46:19;19.43;;;10.97;;
6689;SDS011;3382;51.576;8.076;2022-12-05T06:48:45;15.17;;;11.27;;
6689;SDS011;3382;51.576;8.076;2022-12-05T06:51:12;14.93;;;10.53;;
6689;SDS011;3382;51.576;8.076;2022-12-05T06:53:39;15.93;;;11.73;;
6689;SDS011;3382;51.576;8.076;2022-12-05T06:56:05;17.37;;;11.20;;
6689;SDS011;3382;51.576;8.076;2022-12-05T06:58:37;17.63;;;10.77;;
6689;SDS011;3382;51.576;8.076;2022-12-05T07:01:17;17.27;;;10.90;;
6689;SDS011;3382;51.576;8.076;2022-12-05T07:04:07;14.80;;;10.53;;
6689;SDS011;3382;51.576;8.076;2022-12-05T07:06:38;14.37;;;10.97;;
6689;SDS011;3382;51.576;8.076;2022-12-05T07:09:05;14.37;;;10.07;;
6689;SDS011;3382;51.576;8.076;2022-12-05T07:11:31;16.37;;;11.50;;
6689;SDS011;3382;51.576;8.076;2022-12-05T07:13:57;17.23;;;11.13;;
6689;SDS011;3382;51.576;8.076;2022-12-05T07:16:22;15.40;;;10.50;;
6689;SDS011;3382;51.576;8.076;2022-12-05T07:18:48;14.90;;;10.83;;
6689;SDS011;3382;51.576;8.076;2022-12-05T07:21:14;15.53;;;10.73;;
6689;SDS011;3382;51.576;8.076;2022-12-05T07:23:41;16.27;;;10.30;;
6689;SDS011;3382;51.576;8.076;2022-12-05T07:26:08;14.37;;;10.57;;
6689;SDS011;3382;51.576;8.076;2022-12-05T07:28:36;16.60;;;10.63;;
6689;SDS011;3382;51.576;8.076;2022-12-05T07:31:20;16.50;;;10.97;;
6689;SDS011;3382;51.576;8.076;2022-12-05T07:33:50;14.33;;;10.40;;
6689;SDS011;3382;51.576;8.076;2022-12-05T07:36:17;16.33;;;11.17;;
6689;SDS011;3382;51.576;8.076;2022-12-05T07:38:44;17.23;;;10.60;;
6689;SDS011;3382;51.576;8.076;2022-12-05T07:41:15;16.67;;;10.23;;
6689;SDS011;3382;51.576;8.076;2022-12-05T07:43:45;14.87;;;10.47;;
6689;SDS011;3382;51.576;8.076;2022-12-05T07:46:11;16.10;;;11.40;;
6689;SDS011;3382;51.576;8.076;2022-12-05T07:48:37;14.77;;;10.80;;
6689;SDS011;3382;51.576;8.076;2022-12-05T07:51:03;15.20;;;10.47;;
6689;SDS011;3382;51.576;8.076;2022-12-05T07:53:30;17.00;;;10.93;;
6689;SDS011;3382;51.576;8.076;2022-12-05T07:55:59;15.60;;;10.57;;
6689;SDS011;3382;51.576;8.076;2022-12-05T07:58:27;19.17;;;11.60;;
6689;SDS011;3382;51.576;8.076;2022-12-05T08:00:54;15.63;;;10.23;;
6689;SDS011;3382;51.576;8.076;2022-12-05T08:03:20;21.03;;;11.07;;
6689;SDS011;3382;51.576;8.076;2022-12-05T08:05:46;17.57;;;12.13;;
6689;SDS011;3382;51.576;8.076;2022-12-05T08:08:11;15.83;;;10.83;;
6689;SDS011;3382;51.576;8.076;2022-12-05T08:10:37;16.57;;;11.63;;
6689;SDS011;3382;51.576;8.076;2022-12-05T08:13:03;15.23;;;10.83;;
6689;SDS011;3382;51.576;8.076;2022-12-05T08:15:29;14.50;;;10.17;;
6689;SDS011;3382;51.576;8.076;2022-12-05T08:17:54;17.13;;;10.10;;
6689;SDS011;3382;51.576;8.076;2022-12-05T08:20:20;15.40;;;11.33;;
6689;SDS011;3382;51.576;8.076;2022-12-05T08:22:45;16.90;;;10.97;;
6689;SDS011;3382;51.576;8.076;2022-12-05T08:25:11;16.10;;;10.93;;
6689;SDS011;3382;51.576;8.076;2022-12-05T08:27:36;14.10;;;10.47;;
6689;SDS011;3382;51.576;8.076;2022-12-05T08:30:02;16.33;;;10.40;;
6689;SDS011;3382;51.576;8.076;2022-12-05T08:32:29;17.60;;;11.83;;
6689;SDS011;3382;51.576;8.076;2022-12-05T08:34:54;15.37;;;10.07;;
6689;SDS011;3382;51.576;8.076;2022-12-05T08:37:20;16.73;;;11.00;;
6689;SDS011;3382;51.576;8.076;2022-12-05T08:39:46;13.87;;;10.73;;
6689;SDS011;3382;51.576;8.076;2022-12-05T08:42:12;16.67;;;10.50;;
6689;SDS011;3382;51.576;8.076;2022-12-05T08:44:38;19.90;;;11.87;;
6689;SDS011;3382;51.576;8.076;2022-12-05T08:47:03;16.53;;;11.50;;
6689;SDS011;3382;51.576;8.076;2022-12-05T08:49:29;16.83;;;11.53;;
6689;SDS011;3382;51.576;8.076;2022-12-05T08:51:54;16.73;;;11.27;;
6689;SDS011;3382;51.576;8.076;2022-12-05T08:54:20;17.53;;;10.97;;
6689;SDS011;3382;51.576;8.076;2022-12-05T08:56:48;17.43;;;12.03;;
6689;SDS011;3382;51.576;8.076;2022-12-05T08:59:15;17.50;;;12.30;;
6689;SDS011;3382;51.576;8.076;2022-12-05T09:01:41;19.40;;;12.57;;
6689;SDS011;3382;51.576;8.076;2022-12-05T09:04:06;15.57;;;12.13;;
6689;SDS011;3382;51.576;8.076;2022-12-05T09:06:33;20.57;;;12.83;;
6689;SDS011;3382;51.576;8.076;2022-12-05T09:09:00;21.20;;;12.93;;
6689;SDS011;3382;51.576;8.076;2022-12-05T09:11:32;17.27;;;12.80;;
6689;SDS011;3382;51.576;8.076;2022-12-05T09:14:00;17.73;;;11.73;;
6689;SDS011;3382;51.576;8.076;2022-12-05T09:16:31;19.20;;;12.17;;
6689;SDS011;3382;51.576;8.076;2022-12-05T09:18:58;19.07;;;12.17;;
6689;SDS011;3382;51.576;8.076;2022-12-05T09:21:25;20.17;;;11.80;;
6689;SDS011;3382;51.576;8.076;2022-12-05T09:23:52;17.93;;;12.40;;
6689;SDS011;3382;51.576;8.076;2022-12-05T09:26:21;18.23;;;12.00;;
6689;SDS011;3382;51.576;8.076;2022-12-05T09:28:50;16.23;;;10.93;;
6689;SDS011;3382;51.576;8.076;2022-12-05T09:31:17;16.37;;;11.20;;
6689;SDS011;3382;51.576;8.076;2022-12-05T09:33:48;20.20;;;11.13;;
6689;SDS011;3382;51.576;8.076;2022-12-05T09:36:16;18.03;;;11.37;;
6689;SDS011;3382;51.576;8.076;2022-12-05T09:38:47;15.77;;;10.53;;
6689;SDS011;3382;51.576;8.076;2022-12-05T09:44:16;16.17;;;10.90;;
6689;SDS011;3382;51.576;8.076;2022-12-05T09:46:51;12.40;;;10.03;;
6689;SDS011;3382;51.576;8.076;2022-12-05T09:49:24;14.43;;;10.57;;
6689;SDS011;3382;51.576;8.076;2022-12-05T09:51:51;15.30;;;11.00;;
6689;SDS011;3382;51.576;8.076;2022-12-05T09:54:18;15.60;;;11.30;;
6689;SDS011;3382;51.576;8.076;2022-12-05T09:56:45;16.47;;;12.17;;
6689;SDS011;3382;51.576;8.076;2022-12-05T09:59:14;15.60;;;10.97;;
6689;SDS011;3382;51.576;8.076;2022-12-05T10:02:03;16.30;;;11.40;;
6689;SDS011;3382;51.576;8.076;2022-12-05T10:13:26;15.57;;;10.90;;
6689;SDS011;3382;51.576;8.076;2022-12-05T10:16:05;14.00;;;10.90;;
6689;SDS011;3382;51.576;8.076;2022-12-05T10:18:44;16.40;;;11.40;;
6689;SDS011;3382;51.576;8.076;2022-12-05T10:24:03;18.60;;;12.47;;
6689;SDS011;3382;51.576;8.076;2022-12-05T10:26:47;15.03;;;11.00;;
6689;SDS011;3382;51.576;8.076;2022-12-05T10:29:26;14.67;;;11.13;;
6689;SDS011;3382;51.576;8.076;2022-12-05T10:32:11;16.43;;;11.93;;
6689;SDS011;3382;51.576;8.076;2022-12-05T10:34:43;17.93;;;12.90;;
6689;SDS011;3382;51.576;8.076;2022-12-05T10:39:42;19.57;;;13.10;;
6689;SDS011;3382;51.576;8.076;2022-12-05T10:42:30;18.60;;;13.50;;
6689;SDS011;3382;51.576;8.076;2022-12-05T10:45:03;17.33;;;12.80;;
6689;SDS011;3382;51.576;8.076;2022-12-05T10:47:31;18.47;;;13.13;;
6689;SDS011;3382;51.576;8.076;2022-12-05T10:50:00;17.90;;;12.50;;
6689;SDS011;3382;51.576;8.076;2022-12-05T10:52:35;18.23;;;12.63;;
6689;SDS011;3382;51.576;8.076;2022-12-05T10:55:02;16.93;;;11.90;;
6689;SDS011;3382;51.576;8.076;2022-12-05T10:57:29;19.20;;;13.03;;
6689;SDS011;3382;51.576;8.076;2022-12-05T10:59:55;18.13;;;12.73;;
6689;SDS011;3382;51.576;8.076;2022-12-05T11:02:30;16.17;;;11.60;;
6689;SDS011;3382;51.576;8.076;2022-12-05T11:04:57;17.30;;;12.47;;
6689;SDS011;3382;51.576;8.076;2022-12-05T11:07:30;18.77;;;12.40;;
6689;SDS011;3382;51.576;8.076;2022-12-05T11:09:59;17.00;;;11.80;;
6689;SDS011;3382;51.576;8.076;2022-12-05T11:12:29;15.63;;;11.47;;
6689;SDS011;3382;51.576;8.076;2022-12-05T11:17:39;16.53;;;11.83;;
6689;SDS011;3382;51.576;8.076;2022-12-05T11:20:47;17.20;;;11.87;;
6689;SDS011;3382;51.576;8.076;2022-12-05T11:22:58;16.77;;;11.33;;
6689;SDS011;3382;51.576;8.076;2022-12-05T11:25:44;17.13;;;12.20;;
6689;SDS011;3382;51.576;8.076;2022-12-05T11:30:54;16.67;;;13.07;;
6689;SDS011;3382;51.576;8.076;2022-12-05T11:33:23;16.27;;;11.43;;
6689;SDS011;3382;51.576;8.076;2022-12-05T11:35:51;13.93;;;11.20;;
6689;SDS011;3382;51.576;8.076;2022-12-05T11:38:20;18.67;;;12.40;;
6689;SDS011;3382;51.576;8.076;2022-12-05T11:46:17;15.60;;;11.70;;
6689;SDS011;3382;51.576;8.076;2022-12-05T11:52:47;15.77;;;11.83;;
6689;SDS011;3382;51.576;8.076;2022-12-05T12:03:10;14.77;;;12.00;;
6689;SDS011;3382;51.576;8.076;2022-12-05T12:11:44;16.40;;;11.60;;
6689;SDS011;3382;51.576;8.076;2022-12-05T12:14:23;14.77;;;11.53;;
6689;SDS011;3382;51.576;8.076;2022-12-05T12:28:31;15.10;;;12.13;;
6689;SDS011;3382;51.576;8.076;2022-12-05T12:34:20;18.67;;;13.33;;
6689;SDS011;3382;51.576;8.076;2022-12-05T12:36:57;24.77;;;19.53;;
6689;SDS011;3382;51.576;8.076;2022-12-05T12:42:28;18.17;;;15.67;;
6689;SDS011;3382;51.576;8.076;2022-12-05T12:50:52;5.33;;;4.50;;
6689;SDS011;3382;51.576;8.076;2022-12-05T12:56:34;14.73;;;11.17;;
6689;SDS011;3382;51.576;8.076;2022-12-05T13:01:57;7.23;;;5.97;;
6689;SDS011;3382;51.576;8.076;2022-12-05T13:04:27;8.43;;;5.80;;
6689;SDS011;3382;51.576;8.076;2022-12-05T13:07:04;7.67;;;6.40;;
6689;SDS011;3382;51.576;8.076;2022-12-05T13:09:39;8.00;;;5.90;;
6689;SDS011;3382;51.576;8.076;2022-12-05T13:12:14;6.87;;;5.87;;
6689;SDS011;3382;51.576;8.076;2022-12-05T13:14:49;7.13;;;5.80;;
6689;SDS011;3382;51.576;8.076;2022-12-05T13:17:18;8.87;;;7.97;;
6689;SDS011;3382;51.576;8.076;2022-12-05T13:19:50;10.20;;;8.10;;
6689;SDS011;3382;51.576;8.076;2022-12-05T13:22:18;8.80;;;7.90;;
6689;SDS011;3382;51.576;8.076;2022-12-05T13:24:46;8.60;;;7.70;;
6689;SDS011;3382;51.576;8.076;2022-12-05T13:27:15;10.57;;;8.60;;
6689;SDS011;3382;51.576;8.076;2022-12-05T13:29:50;12.50;;;9.93;;
6689;SDS011;3382;51.576;8.076;2022-12-05T13:34:56;15.73;;;11.73;;
6689;SDS011;3382;51.576;8.076;2022-12-05T13:37:25;19.67;;;13.47;;
6689;SDS011;3382;51.576;8.076;2022-12-05T13:43:23;19.93;;;12.60;;
6689;SDS011;3382;51.576;8.076;2022-12-05T13:48:32;15.73;;;11.57;;
6689;SDS011;3382;51.576;8.076;2022-12-05T13:53:47;10.93;;;9.77;;
6689;SDS011;3382;51.576;8.076;2022-12-05T13:56:25;9.93;;;8.93;;
6689;SDS011;3382;51.576;8.076;2022-12-05T13:59:09;11.20;;;9.30;;
6689;SDS011;3382;51.576;8.076;2022-12-05T14:01:45;12.93;;;10.87;;
6689;SDS011;3382;51.576;8.076;2022-12-05T14:07:09;10.70;;;8.53;;
6689;SDS011;3382;51.576;8.076;2022-12-05T14:09:51;10.43;;;7.73;;
6689;SDS011;3382;51.576;8.076;2022-12-05T14:17:25;11.60;;;10.07;;
6689;SDS011;3382;51.576;8.076;2022-12-05T14:20:12;12.23;;;9.80;;
6689;SDS011;3382;51.576;8.076;2022-12-05T14:30:46;10.47;;;9.37;;
6689;SDS011;3382;51.576;8.076;2022-12-05T14:33:16;10.57;;;8.90;;
6689;SDS011;3382;51.576;8.076;2022-12-05T14:35:49;11.20;;;8.47;;
6689;SDS011;3382;51.576;8.076;2022-12-05T14:40:52;11.40;;;8.83;;
6689;SDS011;3382;51.576;8.076;2022-12-05T14:43:29;9.60;;;7.80;;
6689;SDS011;3382;51.576;8.076;2022-12-05T14:46:00;10.60;;;8.97;;
6689;SDS011;3382;51.576;8.076;2022-12-05T14:48:32;11.23;;;9.13;;
6689;SDS011;3382;51.576;8.076;2022-12-05T14:51:01;17.33;;;11.17;;
6689;SDS011;3382;51.576;8.076;2022-12-05T14:53:46;14.53;;;11.27;;
6689;SDS011;3382;51.576;8.076;2022-12-05T14:56:20;12.67;;;10.50;;
6689;SDS011;3382;51.576;8.076;2022-12-05T14:58:58;6.07;;;4.93;;
6689;SDS011;3382;51.576;8.076;2022-12-05T15:01:39;6.37;;;5.10;;
6689;SDS011;3382;51.576;8.076;2022-12-05T15:07:32;10.73;;;7.47;;
6689;SDS011;3382;51.576;8.076;2022-12-05T15:10:05;10.20;;;8.33;;
6689;SDS011;3382;51.576;8.076;2022-12-05T15:12:53;7.90;;;6.67;;
6689;SDS011;3382;51.576;8.076;2022-12-05T15:18:21;7.20;;;5.87;;
6689;SDS011;3382;51.576;8.076;2022-12-05T15:31:30;8.17;;;6.50;;
6689;SDS011;3382;51.576;8.076;2022-12-05T15:34:02;7.73;;;6.73;;
6689;SDS011;3382;51.576;8.076;2022-12-05T15:42:22;8.73;;;6.83;;
6689;SDS011;3382;51.576;8.076;2022-12-05T15:44:50;9.53;;;7.27;;
6689;SDS011;3382;51.576;8.076;2022-12-05T15:47:23;10.23;;;7.40;;
6689;SDS011;3382;51.576;8.076;2022-12-05T15:49:50;9.13;;;7.83;;
6689;SDS011;3382;51.576;8.076;2022-12-05T15:54:47;8.37;;;6.93;;
6689;SDS011;3382;51.576;8.076;2022-12-05T15:57:15;7.07;;;6.00;;
6689;SDS011;3382;51.576;8.076;2022-12-05T15:59:51;7.97;;;6.70;;
6689;SDS011;3382;51.576;8.076;2022-12-05T16:02:41;8.20;;;7.33;;
6689;SDS011;3382;51.576;8.076;2022-12-05T16:05:23;8.03;;;7.23;;
6689;SDS011;3382;51.576;8.076;2022-12-05T16:07:53;10.50;;;7.33;;
6689;SDS011;3382;51.576;8.076;2022-12-05T16:10:19;11.87;;;9.50;;
6689;SDS011;3382;51.576;8.076;2022-12-05T16:12:46;10.27;;;8.30;;
6689;SDS011;3382;51.576;8.076;2022-12-05T16:15:24;10.97;;;9.77;;
6689;SDS011;3382;51.576;8.076;2022-12-05T16:17:54;15.50;;;11.60;;
6689;SDS011;3382;51.576;8.076;2022-12-05T16:20:27;13.03;;;10.90;;
6689;SDS011;3382;51.576;8.076;2022-12-05T16:23:22;11.30;;;10.20;;
6689;SDS011;3382;51.576;8.076;2022-12-05T16:25:50;11.87;;;9.90;;
6689;SDS011;3382;51.576;8.076;2022-12-05T16:28:17;11.37;;;9.57;;
6689;SDS011;3382;51.576;8.076;2022-12-05T16:33:20;6.63;;;5.10;;
6689;SDS011;3382;51.576;8.076;2022-12-05T16:35:46;12.70;;;9.57;;
6689;SDS011;3382;51.576;8.076;2022-12-05T16:43:17;9.30;;;7.23;;
6689;SDS011;3382;51.576;8.076;2022-12-05T16:45:51;9.03;;;7.90;;
6689;SDS011;3382;51.576;8.076;2022-12-05T16:48:23;9.67;;;8.67;;
6689;SDS011;3382;51.576;8.076;2022-12-05T16:50:51;11.00;;;7.80;;
6689;SDS011;3382;51.576;8.076;2022-12-05T16:53:28;11.60;;;8.27;;
6689;SDS011;3382;51.576;8.076;2022-12-05T16:55:57;10.73;;;7.80;;
6689;SDS011;3382;51.576;8.076;2022-12-05T16:58:24;10.93;;;9.13;;
6689;SDS011;3382;51.576;8.076;2022-12-05T17:00:57;12.07;;;9.77;;
6689;SDS011;3382;51.576;8.076;2022-12-05T17:03:28;10.97;;;8.63;;
6689;SDS011;3382;51.576;8.076;2022-12-05T17:05:54;11.27;;;9.03;;
6689;SDS011;3382;51.576;8.076;2022-12-05T17:08:21;9.37;;;8.37;;
6689;SDS011;3382;51.576;8.076;2022-12-05T17:10:47;10.47;;;8.03;;
6689;SDS011;3382;51.576;8.076;2022-12-05T17:13:13;9.57;;;7.83;;
6689;SDS011;3382;51.576;8.076;2022-12-05T17:15:40;10.00;;;8.90;;
6689;SDS011;3382;51.576;8.076;2022-12-05T17:18:09;11.43;;;9.77;;
6689;SDS011;3382;51.576;8.076;2022-12-05T17:20:53;10.93;;;9.80;;
6689;SDS011;3382;51.576;8.076;2022-12-05T17:23:20;11.00;;;9.40;;
6689;SDS011;3382;51.576;8.076;2022-12-05T17:25:51;11.83;;;10.10;;
6689;SDS011;3382;51.576;8.076;2022-12-05T17:28:18;14.27;;;11.53;;
6689;SDS011;3382;51.576;8.076;2022-12-05T17:30:44;13.93;;;10.63;;
6689;SDS011;3382;51.576;8.076;2022-12-05T17:33:14;14.47;;;11.90;;
6689;SDS011;3382;51.576;8.076;2022-12-05T17:35:40;13.70;;;11.77;;
6689;SDS011;3382;51.576;8.076;2022-12-05T17:38:07;13.93;;;10.93;;
6689;SDS011;3382;51.576;8.076;2022-12-05T17:40:34;17.37;;;13.00;;
6689;SDS011;3382;51.576;8.076;2022-12-05T17:43:01;17.90;;;13.20;;
6689;SDS011;3382;51.576;8.076;2022-12-05T17:45:27;21.23;;;13.17;;
6689;SDS011;3382;51.576;8.076;2022-12-05T17:47:54;16.73;;;11.87;;
6689;SDS011;3382;51.576;8.076;2022-12-05T17:50:20;15.37;;;11.77;;
6689;SDS011;3382;51.576;8.076;2022-12-05T17:52:47;12.60;;;10.67;;
6689;SDS011;3382;51.576;8.076;2022-12-05T17:55:18;11.87;;;10.37;;